createdAt,value
2019-06-10T04:00:25.444Z,101840.02
2019-06-10T04:03:54.907Z,101830.28
2019-06-10T04:07:28.094Z,101831.74
2019-06-10T04:10:57.771Z,101832.45
2019-06-10T04:14:28.701Z,101824.79
2019-06-10T04:17:57.649Z,101821.57
2019-06-10T04:21:28.601Z,101816.68
2019-06-10T04:24:57.550Z,101808.76
2019-06-10T04:28:28.735Z,101809.32
2019-06-10T04:31:57.432Z,101807.85
2019-06-10T04:35:29.108Z,101812.4
2019-06-10T04:38:57.327Z,101810.85
2019-06-10T04:42:28.894Z,101802.73
2019-06-10T04:45:57.186Z,101793.4
2019-06-10T04:49:28.586Z,101783.4
2019-06-10T04:52:58.077Z,101778.25
2019-06-10T04:56:31.005Z,101775.59
2019-06-10T05:00:02.534Z,101774.85
2019-06-10T05:03:33.812Z,101771.68
2019-06-10T05:07:02.856Z,101775.52
2019-06-10T05:10:33.281Z,101776.1
2019-06-10T05:14:02.693Z,101775.64
2019-06-10T05:17:34.067Z,101768.59
2019-06-10T05:21:02.732Z,101768.96
2019-06-10T05:24:34.173Z,101777.52
2019-06-10T05:28:02.768Z,101778.43
2019-06-10T05:31:34.909Z,101768.55
2019-06-10T05:35:03.448Z,101767.8
2019-06-10T05:38:35.263Z,101754.84
2019-06-10T05:42:03.494Z,101744.46
2019-06-10T05:45:35.052Z,101749.38
2019-06-10T05:49:03.228Z,101759.79
2019-06-10T05:52:33.749Z,101760.32
2019-06-10T05:56:03.044Z,101754.59
2019-06-10T05:59:31.483Z,101755.54
2019-06-10T06:03:02.729Z,101756.82
2019-06-10T06:06:32.313Z,101747.4
2019-06-10T06:10:03.814Z,101747.58
2019-06-10T06:13:35.796Z,101746.78
2019-06-10T06:17:03.681Z,101745.03
2019-06-10T06:20:35.471Z,101746.14
2019-06-10T06:24:04.550Z,101736.73
2019-06-10T06:27:35.464Z,101730.18
2019-06-10T06:31:05.467Z,101733.9
2019-06-10T06:34:37.443Z,101732.49
2019-06-10T06:38:06.343Z,101721.93
2019-06-10T06:41:37.525Z,101715.16
2019-06-10T06:45:06.247Z,101710.42
2019-06-10T06:48:38.590Z,101715.5
2019-06-10T06:52:08.282Z,101710.62
2019-06-10T06:55:39.741Z,101705.31
2019-06-10T06:59:08.178Z,101713.1
2019-06-10T07:02:40.798Z,101707.81
2019-06-10T07:06:09.079Z,101710.97
2019-06-10T07:09:41.207Z,101703.89
2019-06-10T07:13:13.022Z,101693.17
2019-06-10T07:16:45.909Z,101684.04
2019-06-10T07:20:14.947Z,101671.5
2019-06-10T07:23:47.077Z,101671.2
2019-06-10T07:27:14.508Z,101659.53
2019-06-10T07:30:50.956Z,101650.65
2019-06-10T07:34:18.223Z,101645.73
2019-06-10T07:37:48.170Z,101639.31
2019-06-10T07:41:18.111Z,101635.25
2019-06-10T07:44:47.951Z,101619.34
2019-06-10T07:48:17.777Z,101618.24
2019-06-10T07:51:47.715Z,101610.75
2019-06-10T07:55:16.716Z,101600.65
2019-06-10T07:58:47.842Z,101591.58
2019-06-10T08:02:16.615Z,101586.26
2019-06-10T08:05:46.810Z,101586.42
2019-06-10T08:09:15.519Z,101590.43
2019-06-10T08:12:46.892Z,101600.2
2019-06-10T08:16:15.945Z,101593.29
2019-06-10T08:19:50.507Z,101599.32
2019-06-10T08:23:19.099Z,101600.93
2019-06-10T08:26:48.095Z,101596.26
2019-06-10T08:30:23.812Z,101596.18
2019-06-10T08:33:53.312Z,101594.42
2019-06-10T08:37:20.621Z,101599.89
2019-06-10T08:40:52.431Z,101594.31
2019-06-10T08:44:19.932Z,101596.57
2019-06-10T08:47:49.885Z,101598.78
2019-06-10T08:51:19.835Z,101603.67
2019-06-10T08:54:54.107Z,101595.64
2019-06-10T08:58:22.560Z,101599.68
2019-06-10T09:01:56.648Z,101594.91
2019-06-10T09:05:24.641Z,101593.71
2019-06-10T09:08:54.863Z,101593.65
2019-06-10T09:12:32.376Z,101591.45
2019-06-10T09:16:12.473Z,101593.28
2019-06-10T09:19:35.471Z,101595.2
2019-06-10T09:23:18.909Z,101589.89
2019-06-10T09:26:44.950Z,101592.36
2019-06-10T09:30:15.261Z,101591.18
2019-06-10T09:33:49.997Z,101593.04
2019-06-10T09:37:18.586Z,101597.78
2019-06-10T09:40:55.311Z,101600.35
2019-06-10T09:44:23.532Z,101597.79
2019-06-10T09:47:59.603Z,101599.53
2019-06-10T09:51:26.426Z,101589.68
2019-06-10T09:54:57.352Z,101590.9
2019-06-10T09:58:26.348Z,101582.76
2019-06-10T10:02:06.477Z,101582.12
2019-06-10T10:05:35.781Z,101576.1
2019-06-10T10:09:05.734Z,101584.75
2019-06-10T10:12:34.746Z,101588.43
2019-06-10T10:16:03.777Z,101594.09
2019-06-10T10:19:31.739Z,101596.28
2019-06-10T10:23:02.496Z,101600.81
2019-06-10T10:26:29.710Z,101601.07
2019-06-10T10:29:58.673Z,101597.1
2019-06-10T10:33:32.655Z,101595.1
2019-06-10T10:37:02.853Z,101597.37
2019-06-10T10:40:32.345Z,101601.71
2019-06-10T10:44:02.886Z,101599.68
2019-06-10T10:47:29.578Z,101592.84
2019-06-10T10:50:59.830Z,101589.35
2019-06-10T10:54:35.758Z,101587.5
2019-06-10T10:58:03.137Z,101559.38
2019-06-10T11:01:33.112Z,101556.35
2019-06-10T11:04:59.506Z,101577.16
2019-06-10T11:08:27.537Z,101567.56
2019-06-10T11:11:58.535Z,101560.85
2019-06-10T11:15:27.549Z,101551.25
2019-06-10T11:18:58.476Z,101549.86
2019-06-10T11:22:27.447Z,101538.93
2019-06-10T11:25:58.987Z,101529.05
2019-06-10T11:29:27.003Z,101522.1
2019-06-10T11:32:59.687Z,101518.23
2019-06-10T11:36:28.893Z,101507.09
2019-06-10T11:39:56.877Z,101515.92
2019-06-10T11:43:25.834Z,101518.4
2019-06-10T11:46:59.665Z,101511.92
2019-06-10T11:50:27.928Z,101520
2019-06-10T11:53:59.007Z,101509.35
2019-06-10T11:57:28.817Z,101505.59
2019-06-10T12:01:03.103Z,101509.42
2019-06-10T12:04:31.234Z,101514.2
2019-06-10T12:08:02.523Z,101517.75
2019-06-10T12:11:30.151Z,101511.93
2019-06-10T12:15:02.133Z,101512.53
2019-06-10T12:18:30.127Z,101509.09
2019-06-10T12:22:06.482Z,101498.7
2019-06-10T12:25:39.212Z,101487.07
2019-06-10T12:29:06.959Z,101483.32
2019-06-10T12:32:36.072Z,101490.18
2019-06-10T12:36:08.323Z,101484.92
2019-06-10T12:39:38.017Z,101486.97
2019-06-10T12:43:08.073Z,101480.21
2019-06-10T12:46:36.980Z,101482.57
2019-06-10T12:50:06.862Z,101480.48
2019-06-10T12:53:35.823Z,101477.72
2019-06-10T12:57:07.676Z,101467.42
2019-06-10T13:00:36.644Z,101469.75
2019-06-10T13:04:09.485Z,101456.03
2019-06-10T13:07:39.206Z,101452.53
2019-06-10T13:11:09.073Z,101450.14
2019-06-10T13:14:39.083Z,101458.64
2019-06-10T13:18:18.388Z,101463
2019-06-10T13:21:44.106Z,101458
2019-06-10T13:25:13.452Z,101452.63
2019-06-10T13:28:43.439Z,101463.25
2019-06-10T13:32:11.044Z,101452.43
2019-06-10T13:35:39.087Z,101450.17
2019-06-10T13:39:13.002Z,101454.43
2019-06-10T13:42:42.197Z,101453.65
2019-06-10T13:46:11.102Z,101453.4
2019-06-10T13:49:39.004Z,101449.28
2019-06-10T13:53:12.637Z,101456.64
2019-06-10T13:56:46.939Z,101452.71
2019-06-10T14:00:14.922Z,101456.68
2019-06-10T14:03:44.946Z,101450.25
2019-06-10T14:07:17.205Z,101449.18
2019-06-10T14:10:44.872Z,101444.95
2019-06-10T14:14:17.974Z,101439.75
2019-06-10T14:17:45.819Z,101452.04
2019-06-10T14:21:18.326Z,101436.6
2019-06-10T14:24:46.722Z,101441.9
2019-06-10T14:28:35.680Z,101438.45
2019-06-10T14:31:53.209Z,101438.81
2019-06-10T14:35:22.533Z,101429.34
2019-06-10T14:38:51.568Z,101421.62
2019-06-10T14:42:19.520Z,101420.87
2019-06-10T14:45:48.489Z,101415.87
2019-06-10T14:49:18.658Z,101416.25
2019-06-10T14:52:49.587Z,101415.66
2019-06-10T14:56:23.113Z,101415.35
2019-06-10T14:59:53.122Z,101414.63
2019-06-10T15:03:22.604Z,101405.21
2019-06-10T15:06:53.919Z,101399.93
2019-06-10T15:10:24.511Z,101400.91
2019-06-10T15:13:54.456Z,101397.97
2019-06-10T15:17:24.436Z,101390.59
2019-06-10T15:20:55.533Z,101394.25
2019-06-10T15:24:25.508Z,101382.79
2019-06-10T15:27:54.449Z,101379.93
2019-06-10T15:31:24.466Z,101368.84
2019-06-10T15:34:54.485Z,101359.18
2019-06-10T15:38:24.471Z,101360.76
2019-06-10T15:41:53.460Z,101356.66
2019-06-10T15:45:22.483Z,101356.45
2019-06-10T15:48:53.829Z,101351.34
2019-06-10T15:52:25.041Z,101349.35
2019-06-10T15:56:12.496Z,101339.33
2019-06-10T15:59:27.489Z,101336.62
2019-06-10T16:03:04.003Z,101333.42
2019-06-10T16:06:33.068Z,101329.84
2019-06-10T16:10:02.817Z,101327.78
2019-06-10T16:13:32.090Z,101339.81
2019-06-10T16:16:58.988Z,101342.68
2019-06-10T16:20:27.990Z,101341.81
2019-06-10T16:23:56.995Z,101342.25
2019-06-10T16:27:43.379Z,101338.25
2019-06-10T16:31:02.708Z,101343.48
2019-06-10T16:34:32.519Z,101340.5
2019-06-10T16:37:59.900Z,101331.32
2019-06-10T16:41:28.852Z,101325.26
2019-06-10T16:44:57.788Z,101333.71
2019-06-10T16:48:27.736Z,101337.71
2019-06-10T16:51:57.685Z,101336.56
2019-06-10T16:55:27.634Z,101317.23
2019-06-10T16:58:57.581Z,101306.93
2019-06-10T17:02:27.558Z,101296.71
2019-06-10T17:05:57.501Z,101296.34
2019-06-10T17:09:29.511Z,101298.07
2019-06-10T17:12:58.380Z,101298.67
2019-06-10T17:16:29.651Z,101291.53
2019-06-10T17:19:57.255Z,101295.42
2019-06-10T17:23:33.051Z,101315.45
2019-06-10T17:27:02.456Z,101320.64
2019-06-10T17:30:31.058Z,101314.1
2019-06-10T17:34:02.509Z,101321.67
2019-06-10T17:37:29.017Z,101316.63
2019-06-10T17:40:58.971Z,101317.34
2019-06-10T17:44:31.068Z,101327.86
2019-06-10T17:48:00.230Z,101320
2019-06-10T17:51:35.467Z,101325.7
2019-06-10T17:55:03.381Z,101323.89
2019-06-10T17:58:49.914Z,101314.17
2019-06-10T18:02:06.358Z,101316.56
2019-06-10T18:05:35.476Z,101323.71
2019-06-10T18:09:04.677Z,101320.84
2019-06-10T18:12:35.818Z,101314.73
2019-06-10T18:16:04.661Z,101314.12
2019-06-10T18:19:37.266Z,101306.92
2019-06-10T18:23:04.620Z,101312.92
2019-06-10T18:26:37.335Z,101328.81
2019-06-10T18:30:11.353Z,101335.21
2019-06-10T18:33:39.447Z,101327.17
2019-06-10T18:37:08.418Z,101324.28
2019-06-10T18:40:38.370Z,101324.4
2019-06-10T18:44:19.652Z,101320.25
2019-06-10T18:47:44.226Z,101309.95
2019-06-10T18:51:13.160Z,101312.78
2019-06-10T18:54:43.599Z,101313.24
2019-06-10T18:58:11.090Z,101319.6
2019-06-10T19:01:39.144Z,101328.76
2019-06-10T19:05:08.077Z,101331.17
2019-06-10T19:08:40.652Z,101329.2
2019-06-10T19:12:09.950Z,101325.26
2019-06-10T19:15:42.577Z,101325.2
2019-06-10T19:19:12.492Z,101326.26
2019-06-10T19:22:43.065Z,101321.82
2019-06-10T19:26:13.225Z,101324.35
2019-06-10T19:29:50.025Z,101329.46
2019-06-10T19:33:14.849Z,101325.67
2019-06-10T19:36:43.869Z,101326.32
2019-06-10T19:40:13.866Z,101326.41
2019-06-10T19:43:45.458Z,101323
2019-06-10T19:47:14.001Z,101322.37
2019-06-10T19:50:49.741Z,101314.43
2019-06-10T19:54:16.958Z,101301.82
2019-06-10T19:57:45.995Z,101289.59
2019-06-10T20:01:14.059Z,101289.46
2019-06-10T20:04:45.254Z,101289.03
2019-06-10T20:08:13.979Z,101280.22
2019-06-10T20:11:46.988Z,101284.25
2019-06-10T20:15:14.989Z,101277.21
2019-06-10T20:18:47.524Z,101269.63
2019-06-10T20:22:15.889Z,101256.56
2019-06-10T20:25:48.821Z,101255.85
2019-06-10T20:29:17.872Z,101252.93
2019-06-10T20:32:51.473Z,101252.81
2019-06-10T20:36:26.807Z,101248.61
2019-06-10T20:39:53.792Z,101250.25
2019-06-10T20:43:22.579Z,101248.82
2019-06-10T20:46:52.966Z,101244.35
2019-06-10T20:50:20.495Z,101249.54
2019-06-10T20:53:49.455Z,101232.39
2019-06-10T20:57:18.391Z,101223.3
2019-06-10T21:00:53.813Z,101234.07
2019-06-10T21:04:21.239Z,101235.75
2019-06-10T21:07:51.775Z,101235.98
2019-06-10T21:11:19.160Z,101227.04
2019-06-10T21:14:50.170Z,101228.75
2019-06-10T21:18:19.041Z,101222.96
2019-06-10T21:21:54.431Z,101217.26
2019-06-10T21:25:22.909Z,101203.78
2019-06-10T21:28:54.889Z,101204.35
2019-06-10T21:32:22.041Z,101204.98
2019-06-10T21:35:54.783Z,101201.65
2019-06-10T21:39:20.935Z,101199.92
2019-06-10T21:42:52.765Z,101189.65
2019-06-10T21:46:22.606Z,101171.97
2019-06-10T21:49:53.474Z,101170.23
2019-06-10T21:53:22.909Z,101174.31
2019-06-10T21:56:54.967Z,101167.39
